Time;durP1;ratioP1;P1;durP2;ratioP2;P2;SDS_P1;SDS_P2;PMS_P1;PMS_P2;Temp;Humidity;BMP_temperature;BMP_pressure;BME280_temperature;BME280_humidity;BME280_pressure;Samples;Min_cycle;Max_cycle;Signal;HPM_P1;HPM_P2
2022/10/18 00:02:03;;;;;;;0.20;0.20;;;13.30;99.90;;;;;;5140947;27;20447;-78
2022/10/18 00:04:29;;;;;;;0.10;0.10;;;13.30;99.90;;;;;;5126985;27;20054;-79
2022/10/18 00:06:55;;;;;;;0.20;0.20;;;13.20;99.90;;;;;;5126880;27;20397;-78
2022/10/18 00:09:20;;;;;;;0.10;0.10;;;13.20;99.90;;;;;;5142139;27;20042;-79
2022/10/18 00:11:46;;;;;;;0.10;0.10;;;13.20;99.90;;;;;;5149787;27;20041;-78
2022/10/18 00:14:11;;;;;;;0.30;0.30;;;13.20;99.90;;;;;;5151262;27;20091;-79
2022/10/18 00:16:37;;;;;;;0.10;0.10;;;13.20;99.90;;;;;;5121939;27;20069;-78
2022/10/18 00:19:03;;;;;;;0.43;0.43;;;13.10;99.90;;;;;;5142035;27;20037;-78
2022/10/18 00:21:28;;;;;;;0.10;0.10;;;13.00;99.90;;;;;;5140420;27;20077;-78
2022/10/18 00:23:54;;;;;;;0.10;0.10;;;13.00;99.90;;;;;;5139377;27;20076;-78
2022/10/18 00:26:23;;;;;;;0.10;0.10;;;12.90;99.90;;;;;;5147855;27;20034;-79
2022/10/18 00:28:54;;;;;;;0.10;0.10;;;12.90;99.90;;;;;;5138846;27;20364;-79
2022/10/18 00:31:28;;;;;;;1.85;1.35;;;12.90;99.90;;;;;;5142867;27;20027;-79
2022/10/18 00:33:56;;;;;;;0.85;0.47;;;12.90;99.90;;;;;;5146733;27;20133;-79
2022/10/18 00:36:23;;;;;;;0.10;0.10;;;12.90;99.90;;;;;;5141995;27;20071;-79
2022/10/18 00:38:49;;;;;;;0.10;0.10;;;12.90;99.90;;;;;;5149446;27;20103;-79
2022/10/18 00:41:19;;;;;;;1.35;0.70;;;13.00;99.90;;;;;;5145546;27;20481;-79
2022/10/18 00:44:26;;;;;;;0.10;0.10;;;13.00;99.90;;;;;;5142402;27;20376;-79
2022/10/18 00:46:55;;;;;;;0.47;0.47;;;13.00;99.90;;;;;;5143857;27;20035;-79
2022/10/18 00:49:26;;;;;;;0.10;0.10;;;13.00;99.90;;;;;;5149149;27;20073;-79
2022/10/18 00:52:02;;;;;;;0.00;0.00;;;13.00;99.90;;;;;;5141701;27;20536;-78
2022/10/18 00:54:30;;;;;;;1.00;0.95;;;13.00;99.90;;;;;;5145240;27;20419;-78
2022/10/18 00:56:57;;;;;;;0.05;0.05;;;13.00;99.90;;;;;;5125375;27;20046;-78
2022/10/18 00:59:23;;;;;;;0.10;0.10;;;13.00;99.90;;;;;;5134493;27;20049;-78
2022/10/18 01:01:49;;;;;;;1.45;0.55;;;13.00;99.90;;;;;;5145780;27;20053;-78
2022/10/18 01:04:16;;;;;;;0.03;0.03;;;12.90;99.90;;;;;;5151033;27;20109;-78
2022/10/18 01:07:00;;;;;;;0.10;0.10;;;12.90;99.90;;;;;;5148705;27;20049;-78
2022/10/18 01:09:39;;;;;;;0.10;0.10;;;12.90;99.90;;;;;;5150138;27;20082;-78
2022/10/18 01:12:36;;;;;;;0.10;0.10;;;12.90;99.90;;;;;;5135733;27;20405;-79
2022/10/18 01:15:24;;;;;;;0.10;0.10;;;12.90;99.90;;;;;;5149237;27;20679;-78
2022/10/18 01:18:15;;;;;;;0.10;0.10;;;12.80;99.90;;;;;;5154512;27;20047;-78
2022/10/18 01:20:49;;;;;;;0.10;0.10;;;12.90;99.90;;;;;;5123964;27;20046;-78
2022/10/18 01:23:42;;;;;;;0.30;0.30;;;12.80;99.90;;;;;;5125300;27;20042;-78
2022/10/18 01:26:14;;;;;;;0.10;0.10;;;12.80;99.90;;;;;;5143173;27;20034;-78
2022/10/18 01:29:17;;;;;;;0.45;0.45;;;12.80;99.90;;;;;;5144875;27;20043;-78
2022/10/18 01:31:50;;;;;;;0.00;0.00;;;12.80;99.90;;;;;;5147962;27;20139;-78
2022/10/18 01:34:17;;;;;;;0.10;0.10;;;12.80;99.90;;;;;;5132716;27;20046;-78
2022/10/18 01:36:50;;;;;;;0.10;0.10;;;12.80;99.90;;;;;;5151484;27;20049;-78
2022/10/18 01:39:21;;;;;;;0.10;0.10;;;12.80;99.90;;;;;;5148999;27;20501;-79
2022/10/18 01:41:50;;;;;;;0.10;0.10;;;12.70;99.90;;;;;;5130727;27;20050;-79
2022/10/18 01:44:19;;;;;;;0.20;0.20;;;12.70;99.90;;;;;;5147281;27;20568;-79
2022/10/18 01:46:46;;;;;;;0.10;0.10;;;12.70;99.90;;;;;;5153276;27;20046;-79
2022/10/18 01:49:11;;;;;;;0.10;0.10;;;12.70;99.90;;;;;;5153849;27;20050;-79
2022/10/18 01:51:37;;;;;;;0.10;0.10;;;12.60;99.90;;;;;;5149120;27;20031;-79
2022/10/18 01:54:03;;;;;;;0.03;0.03;;;12.60;99.90;;;;;;5139871;27;20046;-78
2022/10/18 01:56:53;;;;;;;0.00;0.00;;;12.60;99.90;;;;;;5129867;27;20049;-79
2022/10/18 02:00:01;;;;;;;0.22;0.22;;;12.60;99.90;;;;;;5152885;27;20038;-78
2022/10/18 02:02:37;;;;;;;0.15;0.15;;;12.50;99.90;;;;;;5136515;27;20091;-76
2022/10/18 02:05:39;;;;;;;0.10;0.10;;;12.50;99.90;;;;;;5136150;27;20654;-78
2022/10/18 02:08:26;;;;;;;0.10;0.10;;;12.50;99.90;;;;;;5124803;27;20523;-76
2022/10/18 02:11:05;;;;;;;0.10;0.10;;;12.40;99.90;;;;;;5143532;27;20047;-77
2022/10/18 02:13:55;;;;;;;0.10;0.10;;;12.40;99.90;;;;;;5149905;27;20054;-77
2022/10/18 02:16:30;;;;;;;0.10;0.10;;;12.40;99.90;;;;;;5126639;27;20046;-77
2022/10/18 02:19:19;;;;;;;0.10;0.10;;;12.40;99.90;;;;;;5148303;27;20050;-77
2022/10/18 02:21:47;;;;;;;0.28;0.20;;;12.30;99.90;;;;;;5097487;27;20078;-76
2022/10/18 02:24:18;;;;;;;0.10;0.10;;;12.20;99.90;;;;;;5145998;27;20043;-78
2022/10/18 02:26:43;;;;;;;0.10;0.10;;;12.20;99.90;;;;;;5122175;27;20065;-77
2022/10/18 02:29:10;;;;;;;0.17;0.17;;;12.20;99.90;;;;;;5125927;27;20047;-77
2022/10/18 02:31:43;;;;;;;0.10;0.10;;;12.10;99.90;;;;;;5144021;27;20478;-79
2022/10/18 02:34:17;;;;;;;0.00;0.00;;;12.10;99.90;;;;;;5143066;27;20117;-76
2022/10/18 02:36:47;;;;;;;0.10;0.10;;;12.10;99.90;;;;;;5144876;27;20066;-75
2022/10/18 02:39:36;;;;;;;0.00;0.00;;;12.10;99.90;;;;;;5138158;27;20042;-80
2022/10/18 02:42:07;;;;;;;0.00;0.00;;;12.00;99.90;;;;;;5137861;27;20043;-80
2022/10/18 02:44:33;;;;;;;0.10;0.10;;;12.00;99.90;;;;;;5143326;27;20414;-81
2022/10/18 02:47:00;;;;;;;0.10;0.10;;;12.00;99.90;;;;;;5142123;27;20039;-81
2022/10/18 02:49:25;;;;;;;0.00;0.00;;;12.00;99.90;;;;;;5118358;27;20051;-80
2022/10/18 02:51:51;;;;;;;0.13;0.13;;;12.00;99.90;;;;;;5138782;27;20053;-81
2022/10/18 02:54:16;;;;;;;0.10;0.10;;;11.90;99.90;;;;;;5136564;27;20043;-80
2022/10/18 02:56:42;;;;;;;0.10;0.10;;;11.90;99.90;;;;;;5134491;27;20039;-80
2022/10/18 02:59:07;;;;;;;0.10;0.10;;;11.90;99.90;;;;;;5123148;27;20045;-80
2022/10/18 03:01:34;;;;;;;0.10;0.10;;;11.90;99.90;;;;;;5139261;27;20054;-80
2022/10/18 03:04:00;;;;;;;0.10;0.10;;;11.90;99.90;;;;;;5136960;27;20118;-80
2022/10/18 03:06:26;;;;;;;0.13;0.13;;;11.80;99.90;;;;;;5149512;27;20110;-80
2022/10/18 03:08:52;;;;;;;0.10;0.10;;;11.80;99.90;;;;;;5146870;27;20034;-80
2022/10/18 03:11:17;;;;;;;0.10;0.10;;;11.70;99.90;;;;;;5130328;27;20073;-80
2022/10/18 03:13:43;;;;;;;0.20;0.20;;;11.70;99.90;;;;;;5139936;27;20074;-80
2022/10/18 03:16:08;;;;;;;0.00;0.00;;;11.70;99.90;;;;;;5136783;27;20070;-80
2022/10/18 03:18:34;;;;;;;0.17;0.17;;;11.60;99.90;;;;;;5142867;27;20135;-80
2022/10/18 03:21:06;;;;;;;0.05;0.05;;;11.60;99.90;;;;;;5141263;27;20493;-80
2022/10/18 03:23:32;;;;;;;0.20;0.20;;;11.40;99.90;;;;;;5150509;27;20050;-80
2022/10/18 03:25:58;;;;;;;0.10;0.10;;;11.30;99.90;;;;;;5138281;27;20038;-79
2022/10/18 03:28:24;;;;;;;0.10;0.10;;;11.40;99.90;;;;;;5144945;27;20362;-79
2022/10/18 03:30:49;;;;;;;0.10;0.10;;;11.40;99.90;;;;;;5126452;27;20041;-79
2022/10/18 03:33:15;;;;;;;0.10;0.10;;;11.40;99.90;;;;;;5139032;27;20497;-80
2022/10/18 03:35:41;;;;;;;0.13;0.13;;;11.40;99.90;;;;;;5145082;27;20039;-79
2022/10/18 03:38:07;;;;;;;0.10;0.10;;;11.50;99.90;;;;;;5139653;27;20046;-79
2022/10/18 03:40:32;;;;;;;0.05;0.05;;;11.50;99.90;;;;;;5128953;27;20039;-80
2022/10/18 03:42:58;;;;;;;0.10;0.10;;;11.40;99.90;;;;;;5144092;27;20045;-80
2022/10/18 03:45:24;;;;;;;0.10;0.10;;;11.40;99.90;;;;;;5143591;27;20443;-80
2022/10/18 03:47:49;;;;;;;0.20;0.20;;;11.30;99.90;;;;;;5141016;27;20047;-80
2022/10/18 03:50:15;;;;;;;1.45;1.10;;;11.30;99.90;;;;;;5141513;27;20121;-80
2022/10/18 03:52:40;;;;;;;0.10;0.10;;;11.30;99.90;;;;;;5146345;27;20027;-80
2022/10/18 03:55:06;;;;;;;0.10;0.10;;;11.40;99.90;;;;;;5141283;27;20035;-79
2022/10/18 03:57:32;;;;;;;0.10;0.10;;;11.30;99.90;;;;;;5128505;27;20050;-80
2022/10/18 03:59:57;;;;;;;0.10;0.10;;;11.30;99.90;;;;;;5141120;27;20047;-80
2022/10/18 04:02:23;;;;;;;0.10;0.10;;;11.40;99.90;;;;;;5149303;27;20123;-80
2022/10/18 04:04:49;;;;;;;0.10;0.10;;;11.40;99.90;;;;;;5136888;27;20085;-80
2022/10/18 04:07:15;;;;;;;0.00;0.00;;;11.40;99.90;;;;;;5142161;27;20545;-80
2022/10/18 04:09:40;;;;;;;0.00;0.00;;;11.40;99.90;;;;;;5127523;27;20050;-80
2022/10/18 04:12:06;;;;;;;0.10;0.10;;;11.40;99.90;;;;;;5142112;27;20038;-79
2022/10/18 04:14:31;;;;;;;0.10;0.10;;;11.40;99.90;;;;;;5147361;27;20046;-80
2022/10/18 04:16:57;;;;;;;0.10;0.10;;;11.30;99.90;;;;;;5139975;27;20118;-79
2022/10/18 04:19:22;;;;;;;0.00;0.00;;;11.30;99.90;;;;;;5134693;27;20043;-79
2022/10/18 04:21:48;;;;;;;0.10;0.10;;;11.30;99.90;;;;;;5122702;27;20047;-79
2022/10/18 04:24:16;;;;;;;0.00;0.00;;;11.20;99.90;;;;;;5128207;27;20123;-79
2022/10/18 04:26:42;;;;;;;0.00;0.00;;;11.30;99.90;;;;;;5141849;27;20042;-79
2022/10/18 04:29:07;;;;;;;0.00;0.00;;;11.20;99.90;;;;;;5128873;27;20038;-79
2022/10/18 04:31:33;;;;;;;0.05;0.05;;;11.30;99.90;;;;;;5127265;27;20043;-79
2022/10/18 04:33:59;;;;;;;0.10;0.10;;;11.20;99.90;;;;;;5142433;27;20103;-80
2022/10/18 04:36:24;;;;;;;0.10;0.10;;;11.20;99.90;;;;;;5120360;27;20043;-79
2022/10/18 04:38:50;;;;;;;0.15;0.15;;;11.20;99.90;;;;;;5145618;27;20043;-80
2022/10/18 04:41:15;;;;;;;0.10;0.10;;;11.20;99.90;;;;;;5121130;27;20059;-79
2022/10/18 04:43:41;;;;;;;0.00;0.00;;;11.10;99.90;;;;;;5150289;27;20067;-80
2022/10/18 04:46:06;;;;;;;0.10;0.10;;;11.10;99.90;;;;;;5136857;27;20454;-79
2022/10/18 04:48:32;;;;;;;0.05;0.05;;;11.10;99.90;;;;;;5120733;27;20047;-80
2022/10/18 04:50:58;;;;;;;0.10;0.10;;;11.00;99.90;;;;;;5144708;27;20043;-79
2022/10/18 04:53:23;;;;;;;0.10;0.10;;;10.90;99.90;;;;;;5137099;27;20036;-79
2022/10/18 04:55:49;;;;;;;0.10;0.10;;;11.00;99.90;;;;;;5148531;27;20038;-79
2022/10/18 04:58:16;;;;;;;0.10;0.10;;;11.00;99.90;;;;;;5135571;27;20092;-79
2022/10/18 05:00:42;;;;;;;0.10;0.10;;;11.00;99.90;;;;;;5135548;27;20050;-79
2022/10/18 05:03:10;;;;;;;0.10;0.10;;;11.00;99.90;;;;;;5139315;27;20149;-79
2022/10/18 05:05:35;;;;;;;7.32;1.10;;;10.90;99.90;;;;;;5125433;27;20043;-79
2022/10/18 05:08:01;;;;;;;0.10;0.10;;;10.80;99.90;;;;;;5138668;27;20408;-80
2022/10/18 05:10:26;;;;;;;0.30;0.30;;;10.80;99.90;;;;;;5136161;27;20106;-80
2022/10/18 05:12:52;;;;;;;0.10;0.10;;;10.80;99.90;;;;;;5122758;28;20058;-80
2022/10/18 05:15:17;;;;;;;0.10;0.10;;;10.80;99.90;;;;;;5145383;27;20039;-79
2022/10/18 05:17:43;;;;;;;0.20;0.20;;;10.80;99.90;;;;;;5143592;27;20035;-79
2022/10/18 05:20:09;;;;;;;3.92;1.10;;;10.80;99.90;;;;;;5138633;27;20191;-79
2022/10/18 05:22:35;;;;;;;0.20;0.20;;;10.80;99.90;;;;;;5132911;27;20566;-80
2022/10/18 05:25:00;;;;;;;0.10;0.10;;;10.80;99.90;;;;;;5142298;27;20129;-79
2022/10/18 05:27:27;;;;;;;0.00;0.00;;;10.80;99.90;;;;;;5134825;27;20103;-80
2022/10/18 05:29:53;;;;;;;0.10;0.10;;;10.80;99.90;;;;;;5136839;27;20043;-80
2022/10/18 05:32:18;;;;;;;0.20;0.20;;;10.80;99.90;;;;;;5143733;27;20043;-80
2022/10/18 05:34:44;;;;;;;0.10;0.10;;;10.70;99.90;;;;;;5149410;27;20042;-80
2022/10/18 05:37:10;;;;;;;0.10;0.10;;;10.70;99.90;;;;;;5131209;27;20059;-80
2022/10/18 05:39:36;;;;;;;0.03;0.03;;;10.70;99.90;;;;;;5137031;27;20042;-80
2022/10/18 05:42:02;;;;;;;0.10;0.10;;;10.60;99.90;;;;;;5146563;27;20176;-80
2022/10/18 05:44:28;;;;;;;0.40;0.40;;;10.60;99.90;;;;;;5136620;27;20121;-80
2022/10/18 05:46:53;;;;;;;0.10;0.10;;;10.60;99.90;;;;;;5142596;27;20072;-80
2022/10/18 05:49:19;;;;;;;0.10;0.10;;;10.60;99.90;;;;;;5144530;27;20603;-79
2022/10/18 05:51:45;;;;;;;0.00;0.00;;;10.60;99.90;;;;;;5135497;27;20084;-79
2022/10/18 05:54:11;;;;;;;0.10;0.10;;;10.50;99.90;;;;;;5151533;27;20121;-80
2022/10/18 05:56:37;;;;;;;0.00;0.00;;;10.50;99.90;;;;;;5133421;27;20062;-80
2022/10/18 05:59:06;;;;;;;0.10;0.10;;;10.50;99.90;;;;;;5152726;27;20069;-80
2022/10/18 06:01:32;;;;;;;0.10;0.10;;;10.50;99.90;;;;;;5141471;27;20059;-79
2022/10/18 06:03:57;;;;;;;0.10;0.10;;;10.50;99.90;;;;;;5142625;27;20390;-79
2022/10/18 06:06:23;;;;;;;0.10;0.10;;;10.40;99.90;;;;;;5128716;27;20043;-79
2022/10/18 06:08:49;;;;;;;0.00;0.00;;;10.40;99.90;;;;;;5144667;27;20038;-79
2022/10/18 06:11:17;;;;;;;0.10;0.10;;;10.50;99.90;;;;;;5145431;27;20121;-79
2022/10/18 06:13:45;;;;;;;0.05;0.05;;;10.50;99.90;;;;;;5148802;27;20047;-79
2022/10/18 06:16:13;;;;;;;0.10;0.10;;;10.40;99.90;;;;;;5139355;27;20031;-80
2022/10/18 06:18:39;;;;;;;0.00;0.00;;;10.40;99.90;;;;;;5130899;27;20053;-79
2022/10/18 06:21:05;;;;;;;0.10;0.10;;;10.30;99.90;;;;;;5144950;27;20117;-79
2022/10/18 06:23:31;;;;;;;0.10;0.10;;;10.20;99.90;;;;;;5144169;27;20554;-79
2022/10/18 06:26:02;;;;;;;0.10;0.10;;;10.20;99.90;;;;;;5149093;27;20479;-79
2022/10/18 06:28:28;;;;;;;0.15;0.15;;;10.20;99.90;;;;;;5121512;27;20043;-80
2022/10/18 06:30:54;;;;;;;0.10;0.10;;;10.20;99.90;;;;;;5149456;27;20103;-80
2022/10/18 06:33:20;;;;;;;0.10;0.10;;;10.10;99.90;;;;;;5142223;27;20043;-79
2022/10/18 06:36:00;;;;;;;0.10;0.10;;;10.10;99.90;;;;;;5149064;27;20086;-80
2022/10/18 06:38:27;;;;;;;0.05;0.05;;;10.10;99.90;;;;;;5141256;27;20043;-79
2022/10/18 06:40:53;;;;;;;0.10;0.10;;;10.20;99.90;;;;;;5151227;27;20043;-80
2022/10/18 06:43:19;;;;;;;0.00;0.00;;;10.20;99.90;;;;;;5150983;27;20047;-79
2022/10/18 06:45:44;;;;;;;0.20;0.20;;;10.10;99.90;;;;;;5142129;27;20030;-79
2022/10/18 06:48:10;;;;;;;0.00;0.00;;;10.10;99.90;;;;;;5131277;27;20057;-80
2022/10/18 06:50:35;;;;;;;0.75;0.75;;;10.10;99.90;;;;;;5139601;27;20393;-80
2022/10/18 06:53:02;;;;;;;0.10;0.10;;;10.20;99.90;;;;;;5144158;27;20428;-79
2022/10/18 06:55:29;;;;;;;0.10;0.10;;;10.30;99.90;;;;;;5144699;27;20047;-79
2022/10/18 06:57:55;;;;;;;0.00;0.00;;;10.30;99.90;;;;;;5138977;27;20050;-80
2022/10/18 07:00:20;;;;;;;0.00;0.00;;;10.20;99.90;;;;;;5150049;27;20046;-79
2022/10/18 07:02:46;;;;;;;0.10;0.10;;;10.30;99.90;;;;;;5130963;27;20054;-79
2022/10/18 07:05:11;;;;;;;0.00;0.00;;;10.40;99.90;;;;;;5135454;27;20134;-79
2022/10/18 07:07:37;;;;;;;0.10;0.10;;;10.40;99.90;;;;;;5121578;27;20043;-79
2022/10/18 07:10:03;;;;;;;0.10;0.10;;;10.40;99.90;;;;;;5125177;27;20469;-79
2022/10/18 07:12:31;;;;;;;0.05;0.05;;;10.50;99.90;;;;;;5144861;27;20049;-79
2022/10/18 07:14:56;;;;;;;0.10;0.10;;;10.40;99.90;;;;;;5124659;27;20042;-80
2022/10/18 07:17:22;;;;;;;0.10;0.10;;;10.50;99.90;;;;;;5138461;27;20039;-79
2022/10/18 07:19:47;;;;;;;0.00;0.00;;;10.60;99.90;;;;;;5121145;27;20108;-79
2022/10/18 07:22:13;;;;;;;0.10;0.10;;;10.60;99.90;;;;;;5123096;27;20504;-79
2022/10/18 07:24:39;;;;;;;0.10;0.10;;;10.60;99.90;;;;;;5141998;27;20061;-79
2022/10/18 07:27:04;;;;;;;0.10;0.10;;;10.60;99.90;;;;;;5145458;27;20042;-80
2022/10/18 07:29:30;;;;;;;0.10;0.10;;;10.70;99.90;;;;;;5120862;27;20538;-80
2022/10/18 07:31:56;;;;;;;0.10;0.10;;;10.70;99.90;;;;;;5142185;27;20047;-80
2022/10/18 07:34:22;;;;;;;0.10;0.10;;;10.70;99.90;;;;;;5133724;27;20418;-80
2022/10/18 07:36:47;;;;;;;0.15;0.15;;;10.80;99.90;;;;;;5131289;27;20039;-80
2022/10/18 07:39:13;;;;;;;0.10;0.10;;;10.80;99.90;;;;;;5144735;27;20045;-80
2022/10/18 07:41:38;;;;;;;0.10;0.10;;;10.80;99.90;;;;;;5148274;27;20079;-80
2022/10/18 07:44:04;;;;;;;0.00;0.00;;;10.90;99.90;;;;;;5137786;27;20116;-80
2022/10/18 07:46:30;;;;;;;0.10;0.10;;;11.00;99.90;;;;;;5141584;27;20109;-80
2022/10/18 07:48:58;;;;;;;0.30;0.30;;;11.00;99.90;;;;;;5133429;27;20042;-80
2022/10/18 07:51:25;;;;;;;0.10;0.10;;;11.00;99.90;;;;;;5132049;27;20046;-80
2022/10/18 07:53:50;;;;;;;0.10;0.10;;;11.10;99.90;;;;;;5121885;27;20053;-80
2022/10/18 07:56:19;;;;;;;0.30;0.30;;;11.10;99.90;;;;;;5146845;27;20082;-81
2022/10/18 07:58:48;;;;;;;0.08;0.08;;;11.10;99.90;;;;;;5123651;27;20055;-80
2022/10/18 08:01:14;;;;;;;0.10;0.10;;;11.10;99.90;;;;;;5132098;27;20055;-80
2022/10/18 08:03:41;;;;;;;0.10;0.10;;;11.10;99.90;;;;;;5137434;27;20059;-80
2022/10/18 08:06:08;;;;;;;0.03;0.03;;;11.20;99.90;;;;;;5122083;27;20039;-81
2022/10/18 08:08:35;;;;;;;0.10;0.10;;;11.20;99.90;;;;;;5134356;27;20038;-81
2022/10/18 08:11:09;;;;;;;0.10;0.10;;;11.30;99.90;;;;;;5141175;27;20035;-80
2022/10/18 08:13:35;;;;;;;0.00;0.00;;;11.30;99.90;;;;;;5124825;27;20062;-80
2022/10/18 08:16:07;;;;;;;0.00;0.00;;;11.40;99.90;;;;;;5141397;27;20480;-81
2022/10/18 08:18:33;;;;;;;0.10;0.10;;;11.50;99.90;;;;;;5147359;27;20254;-81
2022/10/18 08:20:59;;;;;;;0.10;0.10;;;11.60;99.90;;;;;;5129824;27;20490;-81
2022/10/18 08:23:25;;;;;;;0.10;0.10;;;11.60;99.90;;;;;;5137551;27;20043;-81
2022/10/18 08:25:51;;;;;;;0.10;0.10;;;11.70;99.90;;;;;;5126616;27;20095;-81
2022/10/18 08:28:16;;;;;;;0.63;0.63;;;11.80;99.90;;;;;;5133454;27;20054;-82
2022/10/18 08:30:42;;;;;;;0.03;0.03;;;11.80;99.90;;;;;;5128699;27;20050;-82
2022/10/18 08:33:08;;;;;;;0.10;0.10;;;11.90;99.90;;;;;;5130308;27;20489;-82
2022/10/18 08:35:34;;;;;;;0.10;0.10;;;12.00;99.90;;;;;;5131614;27;20116;-81
2022/10/18 08:38:00;;;;;;;0.10;0.10;;;12.00;99.90;;;;;;5131323;27;20398;-82
2022/10/18 08:40:26;;;;;;;0.05;0.05;;;12.10;99.90;;;;;;5133762;27;20500;-82
2022/10/18 08:43:21;;;;;;;0.10;0.10;;;12.20;99.90;;;;;;5136692;27;20111;-82
2022/10/18 08:45:49;;;;;;;0.10;0.10;;;12.30;99.90;;;;;;5112176;27;20051;-81
2022/10/18 08:48:22;;;;;;;0.45;0.45;;;12.40;99.90;;;;;;5131557;27;20038;-82
2022/10/18 08:50:49;;;;;;;0.00;0.00;;;12.40;99.90;;;;;;5130737;27;20095;-82
2022/10/18 08:53:35;;;;;;;0.10;0.10;;;12.50;99.90;;;;;;5136358;27;20164;-82
2022/10/18 08:56:13;;;;;;;0.10;0.10;;;12.60;99.90;;;;;;5131626;27;20057;-82
2022/10/18 08:58:43;;;;;;;0.00;0.00;;;12.60;99.90;;;;;;5152374;27;20091;-82
2022/10/18 09:01:35;;;;;;;0.10;0.10;;;12.70;99.90;;;;;;5142223;27;20094;-82
2022/10/18 09:04:26;;;;;;;0.20;0.20;;;12.80;99.90;;;;;;5130261;27;20051;-82
2022/10/18 09:06:57;;;;;;;0.10;0.10;;;12.80;99.90;;;;;;5122110;27;20101;-82
2022/10/18 09:10:01;;;;;;;0.05;0.05;;;12.90;99.90;;;;;;5137171;27;20038;-82
2022/10/18 09:13:05;;;;;;;0.70;0.52;;;13.00;99.90;;;;;;5117021;27;20435;-82
2022/10/18 09:16:00;;;;;;;0.15;0.15;;;13.10;99.90;;;;;;5127343;27;20770;-81
2022/10/18 09:18:57;;;;;;;0.10;0.10;;;13.20;99.90;;;;;;5151485;27;20156;-80
2022/10/18 09:21:47;;;;;;;0.10;0.10;;;13.20;99.90;;;;;;5141512;27;20043;-80
2022/10/18 09:24:25;;;;;;;0.10;0.10;;;13.40;99.90;;;;;;5144714;27;20050;-82
2022/10/18 09:26:56;;;;;;;0.10;0.10;;;14.40;99.90;;;;;;5140687;27;20043;-80
2022/10/18 09:29:29;;;;;;;0.10;0.10;;;15.40;99.90;;;;;;5150252;27;20473;-81
2022/10/18 09:32:07;;;;;;;1.20;1.17;;;16.20;99.90;;;;;;5155852;27;20054;-81
2022/10/18 09:34:38;;;;;;;0.00;0.00;;;16.90;99.90;;;;;;5150745;27;20046;-82
2022/10/18 09:37:04;;;;;;;0.00;0.00;;;17.60;99.90;;;;;;5136600;27;20047;-81
2022/10/18 09:39:34;;;;;;;0.10;0.10;;;18.10;99.90;;;;;;5147739;27;20031;-81
2022/10/18 09:42:25;;;;;;;0.00;0.00;;;18.20;99.90;;;;;;5145313;27;20046;-81
2022/10/18 09:45:02;;;;;;;2.00;1.05;;;18.30;99.90;;;;;;5146774;27;20061;-79
2022/10/18 09:47:44;;;;;;;0.98;0.40;;;18.10;99.90;;;;;;5147464;27;20062;-79
2022/10/18 09:50:30;;;;;;;0.10;0.10;;;17.80;99.90;;;;;;5147066;27;20042;-79
2022/10/18 09:53:14;;;;;;;0.10;0.10;;;17.40;99.90;;;;;;5146509;27;20088;-79
2022/10/18 09:55:51;;;;;;;10.48;4.38;;;17.00;99.90;;;;;;5154781;27;20158;-79
2022/10/18 09:58:19;;;;;;;0.10;0.10;;;16.80;99.90;;;;;;5148963;27;20084;-82
2022/10/18 10:00:47;;;;;;;0.10;0.10;;;16.60;99.90;;;;;;5138734;27;20078;-82
2022/10/18 10:03:14;;;;;;;0.00;0.00;;;16.40;99.90;;;;;;5133544;27;20089;-82
2022/10/18 10:05:41;;;;;;;0.10;0.10;;;16.20;99.90;;;;;;5133703;27;20944;-82
2022/10/18 10:08:06;;;;;;;0.20;0.20;;;16.10;99.90;;;;;;5137622;27;20118;-82
2022/10/18 10:10:33;;;;;;;0.00;0.00;;;15.80;99.90;;;;;;5150472;27;20121;-82
2022/10/18 10:13:24;;;;;;;0.00;0.00;;;15.80;99.90;;;;;;5136628;27;20038;-82
2022/10/18 10:15:56;;;;;;;0.10;0.10;;;15.80;99.90;;;;;;5141709;27;20083;-82
2022/10/18 10:18:25;;;;;;;0.10;0.10;;;15.80;99.90;;;;;;5136083;27;20047;-82
2022/10/18 10:20:57;;;;;;;2.25;0.95;;;15.90;99.90;;;;;;5154524;27;20423;-82
2022/10/18 10:23:28;;;;;;;0.10;0.10;;;15.80;99.90;;;;;;5141070;27;20401;-81
2022/10/18 10:26:00;;;;;;;0.00;0.00;;;15.70;99.90;;;;;;5143725;27;20038;-81
2022/10/18 10:28:30;;;;;;;0.10;0.10;;;15.50;99.90;;;;;;5134555;27;20039;-81
2022/10/18 10:31:29;;;;;;;0.40;0.40;;;15.40;99.90;;;;;;5150611;27;20053;-83
2022/10/18 10:34:13;;;;;;;0.05;0.05;;;15.40;99.90;;;;;;5134092;27;20049;-82
2022/10/18 10:36:49;;;;;;;;;;;15.50;99.90;;;;;;5134263;27;20047;-82
2022/10/18 10:39:18;;;;;;;0.00;0.00;;;15.60;99.90;;;;;;5120061;27;19919;-82
2022/10/18 10:41:52;;;;;;;0.22;0.22;;;15.50;99.90;;;;;;5146527;27;20542;-82
2022/10/18 10:44:26;;;;;;;0.10;0.10;;;15.60;99.90;;;;;;5137582;27;20047;-82
2022/10/18 10:46:53;;;;;;;10.77;1.55;;;15.60;99.90;;;;;;5148117;27;20050;-81
2022/10/18 10:49:34;;;;;;;0.10;0.10;;;15.70;99.90;;;;;;5152372;27;20051;-81
2022/10/18 10:52:01;;;;;;;0.20;0.20;;;15.80;99.90;;;;;;5133382;27;20062;-81
2022/10/18 10:54:34;;;;;;;0.00;0.00;;;15.70;99.90;;;;;;5135278;27;20046;-81
2022/10/18 10:57:04;;;;;;;0.55;0.55;;;15.60;99.90;;;;;;5152132;27;20034;-81
2022/10/18 10:59:40;;;;;;;0.05;0.05;;;15.70;99.90;;;;;;5146770;27;20057;-81
2022/10/18 11:02:18;;;;;;;0.10;0.10;;;15.80;99.90;;;;;;5144588;27;20487;-81
2022/10/18 11:04:46;;;;;;;0.10;0.10;;;15.90;99.90;;;;;;5122292;27;20138;-81
2022/10/18 11:07:28;;;;;;;0.10;0.10;;;15.90;99.90;;;;;;5134505;27;20043;-81
2022/10/18 11:10:09;;;;;;;0.00;0.00;;;15.80;99.90;;;;;;5145742;27;20043;-81
2022/10/18 11:12:54;;;;;;;0.10;0.10;;;15.90;99.90;;;;;;5145580;27;20103;-81
2022/10/18 11:15:44;;;;;;;0.38;0.38;;;15.80;99.90;;;;;;5121078;27;20050;-81
2022/10/18 11:18:13;;;;;;;0.08;0.08;;;15.70;99.90;;;;;;5140329;27;20439;-80
2022/10/18 11:20:44;;;;;;;0.00;0.00;;;15.70;99.90;;;;;;5148151;27;20073;-81
2022/10/18 11:23:13;;;;;;;0.10;0.10;;;15.60;99.90;;;;;;5151145;27;20046;-81
2022/10/18 11:25:44;;;;;;;1.20;0.75;;;15.70;99.90;;;;;;5153496;27;20371;-81
2022/10/18 11:28:33;;;;;;;0.00;0.00;;;15.80;99.90;;;;;;5135724;27;20035;-82
2022/10/18 11:31:18;;;;;;;0.47;0.47;;;16.40;99.90;;;;;;5121232;27;20490;-82
2022/10/18 11:34:21;;;;;;;0.10;0.10;;;16.80;99.90;;;;;;5147839;27;20057;-82
2022/10/18 11:37:14;;;;;;;0.10;0.10;;;17.20;99.90;;;;;;5153088;27;20059;-82
2022/10/18 11:39:55;;;;;;;0.00;0.00;;;17.40;99.90;;;;;;5119104;27;20148;-82
2022/10/18 11:42:46;;;;;;;1.08;0.98;;;17.70;99.90;;;;;;5130674;27;20289;-82
2022/10/18 11:45:39;;;;;;;0.00;0.00;;;18.20;99.90;;;;;;5130932;27;20043;-82
2022/10/18 11:48:34;;;;;;;0.00;0.00;;;17.80;99.90;;;;;;5133344;27;20133;-81
2022/10/18 11:51:27;;;;;;;0.15;0.15;;;17.50;99.90;;;;;;5116360;27;20047;-73
2022/10/18 11:54:02;;;;;;;0.10;0.10;;;17.60;99.90;;;;;;5114037;27;20055;-80
2022/10/18 11:56:36;;;;;;;0.10;0.10;;;17.80;99.90;;;;;;5125591;27;20054;-80
2022/10/18 11:59:37;;;;;;;0.10;0.10;;;18.20;99.90;;;;;;5122006;27;20051;-81
2022/10/18 12:02:36;;;;;;;0.10;0.10;;;18.80;99.90;;;;;;5131439;27;20414;-81
2022/10/18 12:05:04;;;;;;;0.00;0.00;;;19.00;99.90;;;;;;5152271;27;20031;-80
2022/10/18 12:07:35;;;;;;;0.30;0.30;;;19.30;99.90;;;;;;5135274;27;20039;-81
2022/10/18 12:10:05;;;;;;;0.40;0.40;;;19.30;99.90;;;;;;5121225;27;20031;-81
2022/10/18 12:12:37;;;;;;;0.00;0.00;;;19.30;99.90;;;;;;5125857;27;20505;-81
2022/10/18 12:15:18;;;;;;;0.50;0.50;;;19.70;99.90;;;;;;5138664;27;20083;-80
2022/10/18 12:17:48;;;;;;;0.13;0.13;;;19.90;99.90;;;;;;5133297;27;20535;-81
2022/10/18 12:20:30;;;;;;;0.00;0.00;;;20.00;99.90;;;;;;5121085;27;20565;-80
2022/10/18 12:23:03;;;;;;;0.00;0.00;;;20.20;99.90;;;;;;5147304;27;20039;-80
2022/10/18 12:25:32;;;;;;;0.00;0.00;;;20.30;99.90;;;;;;5141243;27;20443;-81
2022/10/18 12:28:04;;;;;;;0.05;0.05;;;20.70;99.90;;;;;;5134400;27;20036;-81
2022/10/18 12:30:41;;;;;;;0.45;0.40;;;20.80;99.90;;;;;;5124059;27;20073;-82
2022/10/18 12:33:22;;;;;;;0.13;0.13;;;20.90;99.90;;;;;;5137553;27;20096;-80
2022/10/18 12:36:04;;;;;;;0.08;0.08;;;20.70;99.90;;;;;;5129918;27;20139;-81
2022/10/18 12:38:34;;;;;;;0.00;0.00;;;20.30;99.90;;;;;;5132566;27;20067;-81
2022/10/18 12:41:00;;;;;;;0.45;0.45;;;20.40;99.90;;;;;;5144020;27;20068;-81
2022/10/18 12:43:32;;;;;;;0.03;0.03;;;20.10;99.90;;;;;;5149078;27;20512;-80
2022/10/18 12:46:00;;;;;;;0.60;0.38;;;19.60;99.90;;;;;;5147621;27;20046;-81
2022/10/18 12:48:41;;;;;;;0.75;0.52;;;20.00;99.90;;;;;;5148054;27;20431;-80
2022/10/18 12:51:14;;;;;;;0.00;0.00;;;19.60;99.90;;;;;;5145730;27;20051;-81
2022/10/18 12:53:54;;;;;;;12.93;0.32;;;19.50;99.90;;;;;;5148991;27;20103;-81
2022/10/18 12:56:28;;;;;;;0.17;0.17;;;20.00;99.90;;;;;;5134594;27;20046;-82
2022/10/18 12:59:16;;;;;;;1.27;1.17;;;20.40;99.90;;;;;;5138377;27;20047;-82
2022/10/18 13:01:50;;;;;;;0.20;0.20;;;20.50;99.90;;;;;;5134773;27;20065;-82
2022/10/18 13:04:27;;;;;;;0.75;0.45;;;20.60;99.90;;;;;;5153857;27;20058;-79
2022/10/18 13:06:56;;;;;;;0.00;0.00;;;20.90;99.90;;;;;;5121242;27;20087;-82
2022/10/18 13:09:43;;;;;;;0.00;0.00;;;21.00;99.90;;;;;;5140248;27;20583;-82
2022/10/18 13:12:08;;;;;;;0.00;0.00;;;20.80;99.90;;;;;;5133343;27;20046;-82